sensor_id;sensor_type;location;lat;lon;timestamp;pressure;altitude;pressure_sealevel;temperature;humidity
34065;BME280;20339;49.754;20.158;2023-11-22T00:01:27;96696.02;;;0.78;100.00
34065;BME280;20339;49.754;20.158;2023-11-22T00:04:00;96699.31;;;0.81;100.00
34065;BME280;20339;49.754;20.158;2023-11-22T00:06:36;96701.13;;;0.80;100.00
34065;BME280;20339;49.754;20.158;2023-11-22T00:09:09;96699.96;;;0.77;100.00
34065;BME280;20339;49.754;20.158;2023-11-22T00:11:41;96698.61;;;0.70;100.00
34065;BME280;20339;49.754;20.158;2023-11-22T00:14:12;96699.63;;;0.68;100.00
34065;BME280;20339;49.754;20.158;2023-11-22T00:16:48;96707.51;;;0.66;100.00
34065;BME280;20339;49.754;20.158;2023-11-22T00:19:19;96708.07;;;0.67;100.00
34065;BME280;20339;49.754;20.158;2023-11-22T00:21:52;96710.90;;;0.68;100.00
34065;BME280;20339;49.754;20.158;2023-11-22T00:24:26;96711.36;;;0.66;100.00
34065;BME280;20339;49.754;20.158;2023-11-22T00:27:04;96714.52;;;0.63;100.00
34065;BME280;20339;49.754;20.158;2023-11-22T00:29:36;96717.55;;;0.60;100.00
34065;BME280;20339;49.754;20.158;2023-11-22T00:32:13;96719.84;;;0.62;100.00
34065;BME280;20339;49.754;20.158;2023-11-22T00:34:46;96724.14;;;0.64;100.00
34065;BME280;20339;49.754;20.158;2023-11-22T00:37:26;96727.09;;;0.67;100.00
34065;BME280;20339;49.754;20.158;2023-11-22T00:39:59;96725.13;;;0.66;100.00
34065;BME280;20339;49.754;20.158;2023-11-22T00:42:33;96725.84;;;0.63;100.00
34065;BME280;20339;49.754;20.158;2023-11-22T00:45:09;96725.98;;;0.62;100.00
34065;BME280;20339;49.754;20.158;2023-11-22T00:47:41;96730.13;;;0.57;100.00
34065;BME280;20339;49.754;20.158;2023-11-22T00:50:15;96733.39;;;0.55;100.00
34065;BME280;20339;49.754;20.158;2023-11-22T00:52:51;96737.30;;;0.53;100.00
34065;BME280;20339;49.754;20.158;2023-11-22T00:55:23;96740.45;;;0.50;100.00
34065;BME280;20339;49.754;20.158;2023-11-22T00:57:54;96743.29;;;0.47;100.00
34065;BME280;20339;49.754;20.158;2023-11-22T01:00:34;96748.46;;;0.48;100.00
34065;BME280;20339;49.754;20.158;2023-11-22T01:03:05;96750.44;;;0.45;100.00
34065;BME280;20339;49.754;20.158;2023-11-22T01:05:38;96753.84;;;0.39;100.00
34065;BME280;20339;49.754;20.158;2023-11-22T01:08:12;96755.19;;;0.36;100.00
34065;BME280;20339;49.754;20.158;2023-11-22T01:10:46;96753.66;;;0.36;100.00
34065;BME280;20339;49.754;20.158;2023-11-22T01:13:17;96757.79;;;0.37;100.00
34065;BME280;20339;49.754;20.158;2023-11-22T01:15:49;96758.59;;;0.38;100.00
34065;BME280;20339;49.754;20.158;2023-11-22T01:18:21;96757.22;;;0.32;100.00
34065;BME280;20339;49.754;20.158;2023-11-22T01:20:55;96765.30;;;0.26;100.00
34065;BME280;20339;49.754;20.158;2023-11-22T01:23:27;96766.16;;;0.19;100.00
34065;BME280;20339;49.754;20.158;2023-11-22T01:26:04;96766.17;;;0.13;100.00
34065;BME280;20339;49.754;20.158;2023-11-22T01:28:40;96768.10;;;0.12;100.00
34065;BME280;20339;49.754;20.158;2023-11-22T01:31:14;96769.11;;;0.15;100.00
34065;BME280;20339;49.754;20.158;2023-11-22T01:33:50;96774.24;;;0.11;100.00
34065;BME280;20339;49.754;20.158;2023-11-22T01:36:23;96781.88;;;0.10;100.00
34065;BME280;20339;49.754;20.158;2023-11-22T01:38:58;96783.20;;;0.10;100.00
34065;BME280;20339;49.754;20.158;2023-11-22T01:41:29;96786.30;;;0.08;100.00
34065;BME280;20339;49.754;20.158;2023-11-22T01:44:04;96788.52;;;0.03;100.00
34065;BME280;20339;49.754;20.158;2023-11-22T01:46:38;96781.77;;;-0.03;100.00
34065;BME280;20339;49.754;20.158;2023-11-22T01:49:15;96786.09;;;-0.10;100.00
34065;BME280;20339;49.754;20.158;2023-11-22T01:51:46;96786.11;;;-0.13;100.00
34065;BME280;20339;49.754;20.158;2023-11-22T01:54:22;96790.77;;;-0.14;100.00
34065;BME280;20339;49.754;20.158;2023-11-22T01:57:01;96790.36;;;-0.13;100.00
34065;BME280;20339;49.754;20.158;2023-11-22T01:59:37;96789.80;;;-0.20;100.00
34065;BME280;20339;49.754;20.158;2023-11-22T02:02:11;96798.09;;;-0.27;100.00
34065;BME280;20339;49.754;20.158;2023-11-22T02:04:43;96805.10;;;-0.30;100.00
34065;BME280;20339;49.754;20.158;2023-11-22T02:07:18;96807.71;;;-0.33;100.00
34065;BME280;20339;49.754;20.158;2023-11-22T02:09:50;96811.23;;;-0.33;100.00
34065;BME280;20339;49.754;20.158;2023-11-22T02:12:23;96812.88;;;-0.33;100.00
34065;BME280;20339;49.754;20.158;2023-11-22T02:15:00;96815.84;;;-0.33;100.00
34065;BME280;20339;49.754;20.158;2023-11-22T02:17:33;96817.18;;;-0.35;100.00
34065;BME280;20339;49.754;20.158;2023-11-22T02:20:07;96818.90;;;-0.35;100.00
34065;BME280;20339;49.754;20.158;2023-11-22T02:22:46;96825.61;;;-0.38;100.00
34065;BME280;20339;49.754;20.158;2023-11-22T02:25:17;96826.58;;;-0.40;100.00
34065;BME280;20339;49.754;20.158;2023-11-22T02:27:49;96828.41;;;-0.43;100.00
34065;BME280;20339;49.754;20.158;2023-11-22T02:30:22;96830.25;;;-0.46;100.00
34065;BME280;20339;49.754;20.158;2023-11-22T02:32:58;96831.10;;;-0.47;100.00
34065;BME280;20339;49.754;20.158;2023-11-22T02:35:32;96832.65;;;-0.44;100.00
34065;BME280;20339;49.754;20.158;2023-11-22T02:38:03;96833.62;;;-0.46;100.00
34065;BME280;20339;49.754;20.158;2023-11-22T02:40:35;96837.98;;;-0.45;100.00
34065;BME280;20339;49.754;20.158;2023-11-22T02:43:08;96839.88;;;-0.42;100.00
34065;BME280;20339;49.754;20.158;2023-11-22T02:45:41;96839.52;;;-0.47;100.00
34065;BME280;20339;49.754;20.158;2023-11-22T02:48:17;96844.33;;;-0.48;100.00
34065;BME280;20339;49.754;20.158;2023-11-22T02:50:48;96844.42;;;-0.62;100.00
34065;BME280;20339;49.754;20.158;2023-11-22T02:53:22;96845.46;;;-0.73;100.00
34065;BME280;20339;49.754;20.158;2023-11-22T02:55:53;96848.44;;;-0.77;100.00
34065;BME280;20339;49.754;20.158;2023-11-22T02:58:30;96852.88;;;-0.84;100.00
34065;BME280;20339;49.754;20.158;2023-11-22T03:01:03;96853.80;;;-0.90;100.00
34065;BME280;20339;49.754;20.158;2023-11-22T03:03:34;96857.03;;;-0.89;100.00
34065;BME280;20339;49.754;20.158;2023-11-22T03:06:07;96861.01;;;-0.97;100.00
34065;BME280;20339;49.754;20.158;2023-11-22T03:08:38;96866.91;;;-0.99;100.00
34065;BME280;20339;49.754;20.158;2023-11-22T03:11:09;96874.48;;;-1.01;100.00
34065;BME280;20339;49.754;20.158;2023-11-22T03:13:40;96877.96;;;-1.02;100.00
34065;BME280;20339;49.754;20.158;2023-11-22T03:16:13;96888.77;;;-1.05;100.00
34065;BME280;20339;49.754;20.158;2023-11-22T03:18:45;96896.77;;;-1.09;100.00
34065;BME280;20339;49.754;20.158;2023-11-22T03:21:23;96900.73;;;-1.05;100.00
34065;BME280;20339;49.754;20.158;2023-11-22T03:23:57;96903.73;;;-1.03;100.00
34065;BME280;20339;49.754;20.158;2023-11-22T03:26:32;96908.34;;;-1.00;100.00
34065;BME280;20339;49.754;20.158;2023-11-22T03:29:03;96911.86;;;-1.01;100.00
34065;BME280;20339;49.754;20.158;2023-11-22T03:31:39;96917.30;;;-0.99;100.00
34065;BME280;20339;49.754;20.158;2023-11-22T03:34:13;96914.45;;;-0.95;100.00
34065;BME280;20339;49.754;20.158;2023-11-22T03:36:44;96917.36;;;-0.92;100.00
34065;BME280;20339;49.754;20.158;2023-11-22T03:39:18;96920.38;;;-0.87;100.00
34065;BME280;20339;49.754;20.158;2023-11-22T03:41:49;96926.73;;;-0.82;100.00
34065;BME280;20339;49.754;20.158;2023-11-22T03:44:23;96930.04;;;-0.77;100.00
34065;BME280;20339;49.754;20.158;2023-11-22T03:46:55;96932.92;;;-0.73;100.00
34065;BME280;20339;49.754;20.158;2023-11-22T03:49:29;96935.77;;;-0.72;100.00
34065;BME280;20339;49.754;20.158;2023-11-22T03:52:02;96942.26;;;-0.71;100.00
34065;BME280;20339;49.754;20.158;2023-11-22T03:54:35;96948.63;;;-0.71;100.00
34065;BME280;20339;49.754;20.158;2023-11-22T03:57:07;96952.56;;;-0.70;100.00
34065;BME280;20339;49.754;20.158;2023-11-22T03:59:40;96952.23;;;-0.72;100.00
34065;BME280;20339;49.754;20.158;2023-11-22T04:02:11;96958.52;;;-0.72;100.00
34065;BME280;20339;49.754;20.158;2023-11-22T04:04:42;96959.88;;;-0.72;100.00
34065;BME280;20339;49.754;20.158;2023-11-22T04:07:17;96963.64;;;-0.73;100.00
34065;BME280;20339;49.754;20.158;2023-11-22T04:09:49;96969.27;;;-0.70;100.00
34065;BME280;20339;49.754;20.158;2023-11-22T04:12:24;96971.45;;;-0.72;100.00
34065;BME280;20339;49.754;20.158;2023-11-22T04:14:57;96979.70;;;-0.75;100.00
34065;BME280;20339;49.754;20.158;2023-11-22T04:17:28;96983.02;;;-0.75;100.00
34065;BME280;20339;49.754;20.158;2023-11-22T04:19:59;96982.27;;;-0.76;100.00
34065;BME280;20339;49.754;20.158;2023-11-22T04:22:30;96982.70;;;-0.76;100.00
34065;BME280;20339;49.754;20.158;2023-11-22T04:25:04;96982.06;;;-0.78;100.00
34065;BME280;20339;49.754;20.158;2023-11-22T04:27:40;96989.43;;;-0.81;100.00
34065;BME280;20339;49.754;20.158;2023-11-22T04:30:13;96994.67;;;-0.82;100.00
34065;BME280;20339;49.754;20.158;2023-11-22T04:32:44;97001.88;;;-0.82;100.00
34065;BME280;20339;49.754;20.158;2023-11-22T04:35:18;97005.39;;;-0.84;100.00
34065;BME280;20339;49.754;20.158;2023-11-22T04:37:55;97017.63;;;-0.90;100.00
34065;BME280;20339;49.754;20.158;2023-11-22T04:40:28;97016.02;;;-0.93;100.00
34065;BME280;20339;49.754;20.158;2023-11-22T04:43:01;97015.80;;;-0.99;100.00
34065;BME280;20339;49.754;20.158;2023-11-22T04:45:38;97022.26;;;-1.02;100.00
34065;BME280;20339;49.754;20.158;2023-11-22T04:48:09;97026.91;;;-1.00;100.00
34065;BME280;20339;49.754;20.158;2023-11-22T04:50:41;97034.19;;;-1.02;100.00
34065;BME280;20339;49.754;20.158;2023-11-22T04:53:13;97039.99;;;-1.05;100.00
34065;BME280;20339;49.754;20.158;2023-11-22T04:55:49;97041.55;;;-1.05;100.00
34065;BME280;20339;49.754;20.158;2023-11-22T04:58:20;97047.71;;;-1.06;100.00
34065;BME280;20339;49.754;20.158;2023-11-22T05:00:55;97054.59;;;-1.05;100.00
34065;BME280;20339;49.754;20.158;2023-11-22T05:03:33;97054.03;;;-1.06;100.00
34065;BME280;20339;49.754;20.158;2023-11-22T05:06:05;97062.16;;;-1.07;100.00
34065;BME280;20339;49.754;20.158;2023-11-22T05:08:42;97068.34;;;-1.05;100.00
34065;BME280;20339;49.754;20.158;2023-11-22T05:11:13;97075.69;;;-1.07;100.00
34065;BME280;20339;49.754;20.158;2023-11-22T05:13:48;97082.73;;;-1.05;100.00
34065;BME280;20339;49.754;20.158;2023-11-22T05:16:20;97087.79;;;-1.04;100.00
34065;BME280;20339;49.754;20.158;2023-11-22T05:18:55;97092.27;;;-1.03;100.00
34065;BME280;20339;49.754;20.158;2023-11-22T05:21:26;97097.63;;;-1.03;100.00
34065;BME280;20339;49.754;20.158;2023-11-22T05:23:57;97103.55;;;-1.07;100.00
34065;BME280;20339;49.754;20.158;2023-11-22T05:26:30;97109.45;;;-1.10;100.00
34065;BME280;20339;49.754;20.158;2023-11-22T05:29:01;97116.13;;;-1.12;100.00
34065;BME280;20339;49.754;20.158;2023-11-22T05:31:34;97113.98;;;-1.12;100.00
34065;BME280;20339;49.754;20.158;2023-11-22T05:34:07;97117.62;;;-1.12;100.00
34065;BME280;20339;49.754;20.158;2023-11-22T05:36:38;97114.10;;;-1.14;100.00
34065;BME280;20339;49.754;20.158;2023-11-22T05:39:12;97117.63;;;-1.15;100.00
34065;BME280;20339;49.754;20.158;2023-11-22T05:41:43;97122.23;;;-1.15;100.00
34065;BME280;20339;49.754;20.158;2023-11-22T05:44:14;97126.98;;;-1.15;100.00
34065;BME280;20339;49.754;20.158;2023-11-22T05:46:49;97133.49;;;-1.17;100.00
34065;BME280;20339;49.754;20.158;2023-11-22T05:49:20;97133.84;;;-1.21;100.00
34065;BME280;20339;49.754;20.158;2023-11-22T05:51:52;97138.50;;;-1.17;100.00
34065;BME280;20339;49.754;20.158;2023-11-22T05:54:25;97144.33;;;-1.14;100.00
34065;BME280;20339;49.754;20.158;2023-11-22T05:56:56;97148.50;;;-1.18;100.00
34065;BME280;20339;49.754;20.158;2023-11-22T05:59:28;97155.04;;;-1.25;100.00
34065;BME280;20339;49.754;20.158;2023-11-22T06:02:02;97159.33;;;-1.25;100.00
34065;BME280;20339;49.754;20.158;2023-11-22T06:04:35;97157.02;;;-1.27;100.00
34065;BME280;20339;49.754;20.158;2023-11-22T06:07:07;97159.70;;;-1.33;100.00
34065;BME280;20339;49.754;20.158;2023-11-22T06:09:41;97163.17;;;-1.35;100.00
34065;BME280;20339;49.754;20.158;2023-11-22T06:12:16;97171.07;;;-1.38;100.00
34065;BME280;20339;49.754;20.158;2023-11-22T06:14:49;97168.58;;;-1.39;100.00
34065;BME280;20339;49.754;20.158;2023-11-22T06:17:25;97166.73;;;-1.39;100.00
34065;BME280;20339;49.754;20.158;2023-11-22T06:19:59;97177.02;;;-1.40;100.00
34065;BME280;20339;49.754;20.158;2023-11-22T06:22:32;97183.15;;;-1.38;100.00
34065;BME280;20339;49.754;20.158;2023-11-22T06:25:08;97184.90;;;-1.42;100.00
34065;BME280;20339;49.754;20.158;2023-11-22T06:27:44;97192.77;;;-1.45;100.00
34065;BME280;20339;49.754;20.158;2023-11-22T06:30:17;97199.36;;;-1.45;100.00
34065;BME280;20339;49.754;20.158;2023-11-22T06:32:51;97199.77;;;-1.44;100.00
34065;BME280;20339;49.754;20.158;2023-11-22T06:35:23;97202.81;;;-1.43;100.00
34065;BME280;20339;49.754;20.158;2023-11-22T06:37:54;97200.25;;;-1.40;100.00
34065;BME280;20339;49.754;20.158;2023-11-22T06:40:28;97199.61;;;-1.40;100.00
34065;BME280;20339;49.754;20.158;2023-11-22T06:43:00;97199.85;;;-1.50;100.00
34065;BME280;20339;49.754;20.158;2023-11-22T06:45:36;97204.27;;;-1.53;100.00
34065;BME280;20339;49.754;20.158;2023-11-22T06:48:07;97206.27;;;-1.61;100.00
34065;BME280;20339;49.754;20.158;2023-11-22T06:50:41;97209.25;;;-1.58;100.00
34065;BME280;20339;49.754;20.158;2023-11-22T06:53:17;97215.20;;;-1.60;100.00
34065;BME280;20339;49.754;20.158;2023-11-22T06:55:52;97211.67;;;-1.69;100.00
34065;BME280;20339;49.754;20.158;2023-11-22T06:58:28;97216.48;;;-1.81;100.00
34065;BME280;20339;49.754;20.158;2023-11-22T07:01:07;97222.21;;;-1.91;100.00
34065;BME280;20339;49.754;20.158;2023-11-22T07:03:41;97230.98;;;-1.85;100.00
34065;BME280;20339;49.754;20.158;2023-11-22T07:06:15;97236.52;;;-1.82;100.00
34065;BME280;20339;49.754;20.158;2023-11-22T07:08:47;97240.96;;;-1.81;100.00
34065;BME280;20339;49.754;20.158;2023-11-22T07:11:26;97247.84;;;-1.76;100.00
34065;BME280;20339;49.754;20.158;2023-11-22T07:14:01;97253.38;;;-1.69;100.00
34065;BME280;20339;49.754;20.158;2023-11-22T07:16:34;97252.69;;;-1.62;100.00
34065;BME280;20339;49.754;20.158;2023-11-22T07:19:12;97255.17;;;-1.57;100.00
34065;BME280;20339;49.754;20.158;2023-11-22T07:21:48;97258.02;;;-1.56;100.00
34065;BME280;20339;49.754;20.158;2023-11-22T07:24:22;97267.14;;;-1.54;100.00
34065;BME280;20339;49.754;20.158;2023-11-22T07:26:54;97265.66;;;-1.49;100.00
34065;BME280;20339;49.754;20.158;2023-11-22T07:29:27;97266.60;;;-1.45;100.00
34065;BME280;20339;49.754;20.158;2023-11-22T07:31:58;97264.85;;;-1.45;100.00
34065;BME280;20339;49.754;20.158;2023-11-22T07:34:32;97256.77;;;-1.44;100.00
34065;BME280;20339;49.754;20.158;2023-11-22T07:37:06;97263.81;;;-1.45;100.00
34065;BME280;20339;49.754;20.158;2023-11-22T07:39:40;97267.02;;;-1.44;100.00
34065;BME280;20339;49.754;20.158;2023-11-22T07:42:16;97267.52;;;-1.41;100.00
34065;BME280;20339;49.754;20.158;2023-11-22T07:44:48;97262.60;;;-1.39;100.00
34065;BME280;20339;49.754;20.158;2023-11-22T07:47:26;97260.77;;;-1.37;100.00
34065;BME280;20339;49.754;20.158;2023-11-22T07:49:58;97267.92;;;-1.38;100.00
34065;BME280;20339;49.754;20.158;2023-11-22T07:52:31;97270.30;;;-1.36;100.00
34065;BME280;20339;49.754;20.158;2023-11-22T07:55:03;97282.52;;;-1.32;100.00
34065;BME280;20339;49.754;20.158;2023-11-22T07:57:35;97283.10;;;-1.31;100.00
34065;BME280;20339;49.754;20.158;2023-11-22T08:00:11;97288.58;;;-1.31;100.00
34065;BME280;20339;49.754;20.158;2023-11-22T08:02:42;97292.30;;;-1.30;100.00
34065;BME280;20339;49.754;20.158;2023-11-22T08:05:14;97296.32;;;-1.29;100.00
34065;BME280;20339;49.754;20.158;2023-11-22T08:07:48;97297.58;;;-1.28;100.00
34065;BME280;20339;49.754;20.158;2023-11-22T08:10:19;97294.63;;;-1.29;100.00
34065;BME280;20339;49.754;20.158;2023-11-22T08:12:55;97299.32;;;-1.29;100.00
34065;BME280;20339;49.754;20.158;2023-11-22T08:15:31;97304.42;;;-1.32;100.00
34065;BME280;20339;49.754;20.158;2023-11-22T08:18:06;97309.02;;;-1.32;100.00
34065;BME280;20339;49.754;20.158;2023-11-22T08:20:40;97313.16;;;-1.30;100.00
34065;BME280;20339;49.754;20.158;2023-11-22T08:23:11;97310.29;;;-1.28;100.00
34065;BME280;20339;49.754;20.158;2023-11-22T08:25:47;97313.59;;;-1.25;100.00
34065;BME280;20339;49.754;20.158;2023-11-22T08:28:20;97317.98;;;-1.26;100.00
34065;BME280;20339;49.754;20.158;2023-11-22T08:30:51;97324.90;;;-1.29;100.00
34065;BME280;20339;49.754;20.158;2023-11-22T08:33:24;97328.25;;;-1.29;100.00
34065;BME280;20339;49.754;20.158;2023-11-22T08:35:57;97337.41;;;-1.30;100.00
34065;BME280;20339;49.754;20.158;2023-11-22T08:38:32;97341.55;;;-1.33;100.00
34065;BME280;20339;49.754;20.158;2023-11-22T08:41:06;97339.60;;;-1.35;100.00
34065;BME280;20339;49.754;20.158;2023-11-22T08:43:41;97345.88;;;-1.40;100.00
34065;BME280;20339;49.754;20.158;2023-11-22T08:46:12;97347.72;;;-1.42;100.00
34065;BME280;20339;49.754;20.158;2023-11-22T08:48:43;97346.81;;;-1.42;100.00
34065;BME280;20339;49.754;20.158;2023-11-22T08:51:15;97347.59;;;-1.43;100.00
34065;BME280;20339;49.754;20.158;2023-11-22T08:53:51;97349.75;;;-1.43;100.00
34065;BME280;20339;49.754;20.158;2023-11-22T08:56:22;97347.67;;;-1.45;100.00
34065;BME280;20339;49.754;20.158;2023-11-22T08:58:56;97353.00;;;-1.47;100.00
34065;BME280;20339;49.754;20.158;2023-11-22T09:01:30;97355.18;;;-1.50;100.00
34065;BME280;20339;49.754;20.158;2023-11-22T09:04:01;97358.69;;;-1.56;100.00
34065;BME280;20339;49.754;20.158;2023-11-22T09:06:32;97363.25;;;-1.56;100.00
34065;BME280;20339;49.754;20.158;2023-11-22T09:09:07;97365.88;;;-1.53;100.00
34065;BME280;20339;49.754;20.158;2023-11-22T09:11:41;97369.74;;;-1.56;100.00
34065;BME280;20339;49.754;20.158;2023-11-22T09:14:16;97369.66;;;-1.53;100.00
34065;BME280;20339;49.754;20.158;2023-11-22T09:16:51;97363.75;;;-1.53;100.00
34065;BME280;20339;49.754;20.158;2023-11-22T09:19:31;97360.16;;;-1.52;100.00
34065;BME280;20339;49.754;20.158;2023-11-22T09:22:06;97359.52;;;-1.52;100.00
34065;BME280;20339;49.754;20.158;2023-11-22T09:24:43;97364.77;;;-1.51;100.00
34065;BME280;20339;49.754;20.158;2023-11-22T09:27:15;97366.36;;;-1.47;100.00
34065;BME280;20339;49.754;20.158;2023-11-22T09:29:50;97366.95;;;-1.44;100.00
34065;BME280;20339;49.754;20.158;2023-11-22T09:32:21;97373.05;;;-1.39;100.00
34065;BME280;20339;49.754;20.158;2023-11-22T09:34:54;97368.81;;;-1.36;100.00
34065;BME280;20339;49.754;20.158;2023-11-22T09:37:30;97368.64;;;-1.37;100.00
34065;BME280;20339;49.754;20.158;2023-11-22T09:40:04;97363.57;;;-1.40;100.00
34065;BME280;20339;49.754;20.158;2023-11-22T09:42:38;97366.30;;;-1.40;100.00
34065;BME280;20339;49.754;20.158;2023-11-22T09:45:13;97371.89;;;-1.40;100.00
34065;BME280;20339;49.754;20.158;2023-11-22T09:47:49;97373.98;;;-1.41;100.00
34065;BME280;20339;49.754;20.158;2023-11-22T09:50:23;97371.93;;;-1.42;100.00
34065;BME280;20339;49.754;20.158;2023-11-22T09:53:04;97367.20;;;-1.40;100.00
34065;BME280;20339;49.754;20.158;2023-11-22T09:55:42;97368.88;;;-1.44;100.00
34065;BME280;20339;49.754;20.158;2023-11-22T09:58:18;97368.75;;;-1.44;100.00
34065;BME280;20339;49.754;20.158;2023-11-22T10:00:51;97375.02;;;-1.41;100.00
34065;BME280;20339;49.754;20.158;2023-11-22T10:03:26;97367.38;;;-1.40;100.00
34065;BME280;20339;49.754;20.158;2023-11-22T10:05:58;97363.02;;;-1.40;100.00
34065;BME280;20339;49.754;20.158;2023-11-22T10:08:32;97372.90;;;-1.40;100.00
34065;BME280;20339;49.754;20.158;2023-11-22T10:11:08;97382.98;;;-1.38;100.00
34065;BME280;20339;49.754;20.158;2023-11-22T10:13:42;97390.84;;;-1.38;100.00
34065;BME280;20339;49.754;20.158;2023-11-22T10:16:16;97399.21;;;-1.36;100.00
34065;BME280;20339;49.754;20.158;2023-11-22T10:18:48;97399.71;;;-1.38;100.00
34065;BME280;20339;49.754;20.158;2023-11-22T10:21:24;97402.16;;;-1.38;100.00
34065;BME280;20339;49.754;20.158;2023-11-22T10:24:01;97398.10;;;-1.43;100.00
34065;BME280;20339;49.754;20.158;2023-11-22T10:26:35;97400.25;;;-1.47;100.00
34065;BME280;20339;49.754;20.158;2023-11-22T10:29:07;97402.73;;;-1.46;100.00
34065;BME280;20339;49.754;20.158;2023-11-22T10:31:39;97411.52;;;-1.48;100.00
34065;BME280;20339;49.754;20.158;2023-11-22T10:34:13;97410.69;;;-1.54;100.00
34065;BME280;20339;49.754;20.158;2023-11-22T10:36:44;97417.06;;;-1.58;100.00
34065;BME280;20339;49.754;20.158;2023-11-22T10:39:20;97417.20;;;-1.57;100.00
34065;BME280;20339;49.754;20.158;2023-11-22T10:41:51;97432.14;;;-1.54;100.00
34065;BME280;20339;49.754;20.158;2023-11-22T10:44:23;97439.16;;;-1.55;100.00
34065;BME280;20339;49.754;20.158;2023-11-22T10:46:57;97451.65;;;-1.56;100.00
34065;BME280;20339;49.754;20.158;2023-11-22T10:49:35;97454.64;;;-1.55;100.00
34065;BME280;20339;49.754;20.158;2023-11-22T10:52:12;97446.47;;;-1.53;100.00
34065;BME280;20339;49.754;20.158;2023-11-22T10:54:50;97450.77;;;-1.52;100.00
34065;BME280;20339;49.754;20.158;2023-11-22T10:57:30;97452.60;;;-1.48;100.00
34065;BME280;20339;49.754;20.158;2023-11-22T11:00:06;97457.61;;;-1.47;100.00
34065;BME280;20339;49.754;20.158;2023-11-22T11:02:46;97457.30;;;-1.50;100.00
34065;BME280;20339;49.754;20.158;2023-11-22T11:05:27;97454.35;;;-1.50;100.00
34065;BME280;20339;49.754;20.158;2023-11-22T11:08:02;97451.23;;;-1.50;100.00
34065;BME280;20339;49.754;20.158;2023-11-22T11:10:41;97446.94;;;-1.50;100.00
34065;BME280;20339;49.754;20.158;2023-11-22T11:13:13;97446.80;;;-1.49;100.00
34065;BME280;20339;49.754;20.158;2023-11-22T11:15:47;97439.02;;;-1.51;100.00
34065;BME280;20339;49.754;20.158;2023-11-22T11:18:21;97437.80;;;-1.52;100.00
34065;BME280;20339;49.754;20.158;2023-11-22T11:20:55;97430.96;;;-1.53;100.00
34065;BME280;20339;49.754;20.158;2023-11-22T11:23:30;97432.55;;;-1.53;100.00
34065;BME280;20339;49.754;20.158;2023-11-22T11:26:16;97434.20;;;-1.52;100.00
34065;BME280;20339;49.754;20.158;2023-11-22T11:28:51;97430.05;;;-1.51;100.00
34065;BME280;20339;49.754;20.158;2023-11-22T11:31:23;97433.00;;;-1.48;100.00
34065;BME280;20339;49.754;20.158;2023-11-22T11:33:59;97423.39;;;-1.49;100.00
34065;BME280;20339;49.754;20.158;2023-11-22T11:36:36;97416.88;;;-1.52;100.00
34065;BME280;20339;49.754;20.158;2023-11-22T11:39:12;97422.98;;;-1.51;100.00
34065;BME280;20339;49.754;20.158;2023-11-22T11:41:48;97421.75;;;-1.49;100.00
34065;BME280;20339;49.754;20.158;2023-11-22T11:44:19;97423.30;;;-1.46;100.00
34065;BME280;20339;49.754;20.158;2023-11-22T11:46:58;97437.29;;;-1.43;100.00
34065;BME280;20339;49.754;20.158;2023-11-22T11:49:38;97444.36;;;-1.51;100.00
34065;BME280;20339;49.754;20.158;2023-11-22T11:52:13;97455.34;;;-1.62;100.00
34065;BME280;20339;49.754;20.158;2023-11-22T11:54:45;97456.69;;;-1.63;100.00
34065;BME280;20339;49.754;20.158;2023-11-22T11:57:16;97450.34;;;-1.71;100.00
34065;BME280;20339;49.754;20.158;2023-11-22T11:59:48;97445.94;;;-1.74;100.00
34065;BME280;20339;49.754;20.158;2023-11-22T12:02:22;97451.31;;;-1.68;100.00
34065;BME280;20339;49.754;20.158;2023-11-22T12:04:54;97452.73;;;-1.64;100.00
34065;BME280;20339;49.754;20.158;2023-11-22T12:07:25;97449.00;;;-1.60;100.00
34065;BME280;20339;49.754;20.158;2023-11-22T12:09:59;97448.14;;;-1.59;100.00
34065;BME280;20339;49.754;20.158;2023-11-22T12:12:31;97448.70;;;-1.59;100.00
34065;BME280;20339;49.754;20.158;2023-11-22T12:15:12;97451.67;;;-1.58;100.00
34065;BME280;20339;49.754;20.158;2023-11-22T12:17:45;97462.70;;;-1.59;100.00
34065;BME280;20339;49.754;20.158;2023-11-22T12:20:22;97464.63;;;-1.62;100.00
34065;BME280;20339;49.754;20.158;2023-11-22T12:22:58;97466.56;;;-1.68;100.00
34065;BME280;20339;49.754;20.158;2023-11-22T12:25:31;97476.60;;;-1.69;100.00
34065;BME280;20339;49.754;20.158;2023-11-22T12:28:03;97487.09;;;-1.70;100.00
34065;BME280;20339;49.754;20.158;2023-11-22T12:30:42;97491.19;;;-1.69;100.00
34065;BME280;20339;49.754;20.158;2023-11-22T12:33:13;97490.74;;;-1.70;100.00
34065;BME280;20339;49.754;20.158;2023-11-22T12:35:47;97483.04;;;-1.75;100.00
34065;BME280;20339;49.754;20.158;2023-11-22T12:38:21;97480.02;;;-1.73;100.00
34065;BME280;20339;49.754;20.158;2023-11-22T12:40:59;97476.14;;;-1.68;100.00
34065;BME280;20339;49.754;20.158;2023-11-22T12:43:32;97471.61;;;-1.67;100.00
34065;BME280;20339;49.754;20.158;2023-11-22T12:46:08;97468.09;;;-1.63;100.00
34065;BME280;20339;49.754;20.158;2023-11-22T12:48:48;97461.30;;;-1.66;100.00
34065;BME280;20339;49.754;20.158;2023-11-22T12:51:20;97463.51;;;-1.66;100.00
34065;BME280;20339;49.754;20.158;2023-11-22T12:53:56;97455.20;;;-1.64;100.00
34065;BME280;20339;49.754;20.158;2023-11-22T12:56:29;97456.43;;;-1.61;100.00
34065;BME280;20339;49.754;20.158;2023-11-22T12:59:03;97463.58;;;-1.59;100.00
34065;BME280;20339;49.754;20.158;2023-11-22T13:01:41;97464.59;;;-1.56;100.00
34065;BME280;20339;49.754;20.158;2023-11-22T13:04:15;97461.90;;;-1.50;100.00
34065;BME280;20339;49.754;20.158;2023-11-22T13:06:46;97458.20;;;-1.48;100.00
34065;BME280;20339;49.754;20.158;2023-11-22T13:09:18;97463.87;;;-1.50;100.00
34065;BME280;20339;49.754;20.158;2023-11-22T13:11:49;97456.39;;;-1.49;100.00
34065;BME280;20339;49.754;20.158;2023-11-22T13:14:21;97462.19;;;-1.49;100.00